createdAt,value
2018-12-11T01:32:40.980Z,91
2018-12-11T01:37:40.975Z,91
2018-12-11T01:42:40.721Z,91
2018-12-11T01:47:41.051Z,91
2018-12-11T01:52:40.965Z,91
2018-12-11T01:57:41.178Z,91
2018-12-11T02:02:40.421Z,91
2018-12-11T02:07:40.640Z,91
2018-12-11T02:12:40.390Z,92
2018-12-11T02:17:40.688Z,92
2018-12-11T02:22:40.977Z,92
2018-12-11T02:27:40.322Z,92
2018-12-11T02:32:40.637Z,92
2018-12-11T02:37:40.612Z,92
2018-12-11T02:42:40.837Z,92
2018-12-11T02:47:41.220Z,92
2018-12-11T02:52:40.820Z,92
2018-12-11T02:57:41.157Z,92
2018-12-11T03:02:40.592Z,92
2018-12-11T03:07:40.676Z,92
2018-12-11T03:12:41.235Z,92
2018-12-11T03:17:40.513Z,92
2018-12-11T03:22:40.972Z,92
2018-12-11T03:27:41.342Z,92
2018-12-11T03:42:40.537Z,92
2018-12-11T03:47:40.806Z,92
2018-12-11T03:52:41.344Z,92
2018-12-11T03:57:40.500Z,92
2018-12-11T04:02:40.927Z,92
2018-12-11T04:07:40.780Z,92
2018-12-11T04:12:40.951Z,93
2018-12-11T04:17:41.163Z,93
2018-12-11T04:22:40.435Z,93
2018-12-11T04:27:40.693Z,93
2018-12-11T04:32:41.013Z,93
2018-12-11T04:37:41.250Z,93
2018-12-11T04:42:40.508Z,93
2018-12-11T04:47:40.876Z,93
2018-12-11T04:52:41.460Z,93
2018-12-11T04:57:40.684Z,93
2018-12-11T05:02:40.939Z,93
2018-12-11T05:07:40.816Z,93
2018-12-11T05:12:41.460Z,93
2018-12-11T05:17:40.749Z,93
2018-12-11T05:22:41.065Z,92
2018-12-11T05:27:40.636Z,92
2018-12-11T05:32:40.576Z,92
2018-12-11T05:37:41.094Z,92
2018-12-11T05:42:41.411Z,92
2018-12-11T05:47:40.738Z,92
2018-12-11T05:52:41.367Z,91
2018-12-11T05:57:40.745Z,91
2018-12-11T06:02:41.279Z,91
2018-12-11T06:07:40.689Z,91
2018-12-11T06:12:41.129Z,91
2018-12-11T06:17:41.465Z,91
2018-12-11T06:22:40.856Z,91
2018-12-11T06:27:41.167Z,91
2018-12-11T06:32:41.475Z,91
2018-12-11T06:37:40.863Z,91
2018-12-11T06:42:41.209Z,91
2018-12-11T06:47:41.430Z,91
2018-12-11T06:52:40.890Z,91
2018-12-11T06:57:41.300Z,91
2018-12-11T07:02:41.548Z,91
2018-12-11T07:07:41.679Z,91
2018-12-11T07:12:41.154Z,91
2018-12-11T07:17:40.637Z,91
2018-12-11T07:22:41.117Z,91
2018-12-11T07:27:41.384Z,91
2018-12-11T07:32:40.856Z,91
2018-12-11T07:37:41.271Z,91
2018-12-11T07:42:41.579Z,91
2018-12-11T07:47:40.979Z,91
2018-12-11T08:32:41.735Z,90
2018-12-11T08:37:40.980Z,90
2018-12-11T08:42:41.234Z,89
2018-12-11T08:47:41.559Z,89
2018-12-11T08:52:41.396Z,89
2018-12-11T08:57:41.538Z,89
2018-12-11T09:02:40.847Z,88
2018-12-11T09:07:41.170Z,88
2018-12-11T09:12:41.526Z,88
2018-12-11T09:17:40.696Z,88
2018-12-11T09:22:41.181Z,88
2018-12-11T09:27:41.490Z,88
2018-12-11T09:32:40.938Z,87
2018-12-11T09:37:41.472Z,87
2018-12-11T09:42:40.828Z,87
2018-12-11T09:47:41.163Z,87
2018-12-11T09:52:41.614Z,87
2018-12-11T09:57:40.922Z,87
2018-12-11T10:02:41.323Z,87
2018-12-11T10:07:40.802Z,87
2018-12-11T10:12:41.235Z,87
2018-12-11T10:17:41.722Z,87
2018-12-11T10:22:40.988Z,87
2018-12-11T10:27:41.415Z,87
2018-12-11T10:32:41.842Z,87
2018-12-11T10:37:41.474Z,87
2018-12-11T10:42:41.277Z,86
2018-12-11T10:47:41.614Z,86
2018-12-11T10:52:41.261Z,86
2018-12-11T10:57:41.532Z,86
2018-12-11T11:02:41.809Z,86
2018-12-11T11:07:40.975Z,86
2018-12-11T11:12:41.643Z,86
2018-12-11T11:17:41.148Z,86
2018-12-11T11:22:40.973Z,86
2018-12-11T11:27:41.235Z,86
2018-12-11T11:32:41.563Z,85
2018-12-11T11:37:41.520Z,85
2018-12-11T11:42:41.791Z,85
2018-12-11T11:47:41.103Z,85
2018-12-11T11:52:41.783Z,85
2018-12-11T11:57:41.062Z,85
2018-12-11T12:02:41.651Z,85
2018-12-11T12:07:41.510Z,85
2018-12-11T12:12:41.073Z,85
2018-12-11T12:17:41.362Z,85
2018-12-11T12:22:41.797Z,85
2018-12-11T12:27:41.150Z,85
2018-12-11T12:32:41.525Z,85
2018-12-11T12:37:41.117Z,85
2018-12-11T12:42:41.396Z,85
2018-12-11T12:47:41.696Z,85
2018-12-11T12:52:41.295Z,86
2018-12-11T12:57:41.624Z,86
2018-12-11T13:02:42.095Z,86
2018-12-11T13:07:41.528Z,86
2018-12-11T13:12:41.149Z,86
2018-12-11T13:17:41.530Z,86
2018-12-11T13:22:41.919Z,86
2018-12-11T13:27:41.238Z,86
2018-12-11T13:32:41.619Z,86
2018-12-11T13:37:41.464Z,86
2018-12-11T13:42:41.716Z,86
2018-12-11T13:47:41.131Z,86
2018-12-11T13:52:41.734Z,87
2018-12-11T13:57:42.000Z,87
2018-12-11T14:02:41.280Z,87
2018-12-11T14:07:42.036Z,87
2018-12-11T14:12:41.685Z,87
2018-12-11T14:17:41.152Z,87
2018-12-11T14:22:41.492Z,87
2018-12-11T14:27:41.772Z,87
2018-12-11T14:32:42.026Z,88
2018-12-11T14:37:41.482Z,88
2018-12-11T14:42:41.905Z,88
2018-12-11T14:47:41.172Z,88
2018-12-11T14:52:41.593Z,88
2018-12-11T14:57:41.954Z,88
2018-12-11T15:02:41.920Z,89
2018-12-11T15:07:41.581Z,89
2018-12-11T15:12:41.969Z,89
2018-12-11T15:17:41.236Z,89
2018-12-11T15:22:41.506Z,89
2018-12-11T15:27:41.900Z,89
2018-12-11T15:32:41.300Z,90
2018-12-11T15:37:41.664Z,90
2018-12-11T15:42:42.017Z,90
2018-12-11T15:47:41.423Z,90
2018-12-11T15:52:42.012Z,90
2018-12-11T15:57:41.389Z,90
2018-12-11T16:02:41.867Z,91
2018-12-11T16:07:41.739Z,91
2018-12-11T16:12:42.140Z,91
2018-12-11T16:17:41.827Z,91
2018-12-11T16:22:42.204Z,91
2018-12-11T16:27:41.569Z,91
2018-12-11T16:32:41.943Z,91
2018-12-11T16:37:41.767Z,91
2018-12-11T16:42:42.044Z,91
2018-12-11T16:47:41.473Z,91
2018-12-11T16:52:41.877Z,91
2018-12-11T16:57:42.204Z,91
2018-12-11T17:02:41.581Z,91
2018-12-11T17:07:42.345Z,91
2018-12-11T17:12:41.529Z,92
2018-12-11T17:17:41.835Z,92
2018-12-11T17:22:42.138Z,92
2018-12-11T17:27:41.519Z,92
2018-12-11T17:32:42.033Z,92
2018-12-11T17:37:41.477Z,92
2018-12-11T17:42:41.685Z,93
2018-12-11T17:47:42.064Z,93
2018-12-11T17:52:41.607Z,93
2018-12-11T17:57:41.985Z,93
2018-12-11T18:02:42.423Z,93
2018-12-11T18:07:42.132Z,93
2018-12-11T18:12:41.549Z,93
2018-12-11T18:17:41.998Z,93
2018-12-11T18:22:42.328Z,94
2018-12-11T18:27:41.584Z,94
2018-12-11T18:32:41.992Z,94
2018-12-11T18:37:41.579Z,94
2018-12-11T18:42:41.829Z,94
2018-12-11T18:47:41.434Z,94
2018-12-11T18:52:41.909Z,94
2018-12-11T18:57:42.115Z,94
2018-12-11T19:02:42.458Z,94
2018-12-11T19:07:42.051Z,94
2018-12-11T19:12:42.022Z,94
2018-12-11T19:17:42.336Z,94
2018-12-11T19:22:41.608Z,95
2018-12-11T19:27:41.977Z,95
2018-12-11T19:32:42.350Z,95
2018-12-11T19:37:41.973Z,95
2018-12-11T19:42:42.303Z,95
2018-12-11T19:47:41.646Z,95
2018-12-11T19:52:41.899Z,95
2018-12-11T19:57:42.307Z,95
2018-12-11T20:02:41.829Z,95
2018-12-11T20:07:41.600Z,95
2018-12-11T20:12:42.460Z,95
2018-12-11T20:17:41.832Z,95
2018-12-11T20:22:42.231Z,95
2018-12-11T20:27:42.458Z,95
2018-12-11T20:32:42.464Z,95
2018-12-11T20:37:41.868Z,95
2018-12-11T20:42:42.187Z,96
2018-12-11T20:47:41.538Z,96
2018-12-11T20:52:41.827Z,96
2018-12-11T20:57:42.085Z,96
2018-12-11T21:02:42.442Z,96
2018-12-11T21:07:42.125Z,96
2018-12-11T21:12:42.405Z,96
2018-12-11T21:17:41.737Z,96
2018-12-11T21:22:42.128Z,96
2018-12-11T21:27:42.443Z,96
2018-12-11T21:32:42.022Z,96
2018-12-11T21:37:42.593Z,96
2018-12-11T21:42:41.908Z,96
2018-12-11T21:47:42.209Z,96
2018-12-11T21:52:41.555Z,96
2018-12-11T21:57:42.003Z,96
2018-12-11T22:02:42.451Z,96
2018-12-11T22:07:42.187Z,96
2018-12-11T22:12:42.516Z,96
2018-12-11T22:17:41.908Z,96
2018-12-11T22:22:42.316Z,96
2018-12-11T22:27:41.805Z,96
2018-12-11T22:32:42.574Z,96
2018-12-11T22:37:42.166Z,96
2018-12-11T22:42:42.667Z,96
2018-12-11T22:47:42.046Z,96
2018-12-11T22:52:41.782Z,96
2018-12-11T22:57:42.023Z,96
2018-12-11T23:02:41.850Z,96
2018-12-11T23:07:41.964Z,96
2018-12-11T23:12:42.110Z,96
2018-12-11T23:17:42.246Z,96
2018-12-11T23:22:41.792Z,96
2018-12-11T23:27:42.195Z,96
2018-12-11T23:32:41.847Z,96
2018-12-11T23:37:42.513Z,96
2018-12-11T23:42:42.158Z,96
2018-12-11T23:47:42.668Z,96
2018-12-11T23:52:42.657Z,96
2018-12-11T23:57:42.142Z,96
